createdAt,value
2022-10-28T00:02:21.355Z,70.10
2022-10-28T00:04:47.969Z,69.56
2022-10-28T00:07:14.565Z,69.15
2022-10-28T00:09:41.224Z,69.02
2022-10-28T00:12:07.823Z,69.75
2022-10-28T00:14:34.470Z,69.56
2022-10-28T00:17:01.080Z,69.07
2022-10-28T00:19:27.673Z,69.27
2022-10-28T00:21:54.289Z,68.63
2022-10-28T00:24:20.908Z,67.97
2022-10-28T00:26:47.518Z,67.66
2022-10-28T00:29:14.124Z,67.14
2022-10-28T00:31:40.811Z,67.55
2022-10-28T00:34:07.410Z,67.84
2022-10-28T00:36:34.039Z,67.57
2022-10-28T00:39:00.634Z,68.68
2022-10-28T00:41:27.237Z,68.07
2022-10-28T00:43:53.846Z,68.45
2022-10-28T00:46:20.476Z,69.87
2022-10-28T00:48:47.090Z,69.60
2022-10-28T00:51:13.737Z,69.56
2022-10-28T00:53:40.387Z,71.35
2022-10-28T00:56:06.978Z,70.38
2022-10-28T00:58:33.597Z,71.54
2022-10-28T01:01:00.242Z,71.32
2022-10-28T01:03:26.862Z,71.33
2022-10-28T01:05:53.519Z,71.66
2022-10-28T01:08:20.124Z,71.66
2022-10-28T01:10:46.767Z,70.92
2022-10-28T01:13:13.359Z,70.53
2022-10-28T01:15:39.947Z,69.20
2022-10-28T01:18:06.559Z,70.05
2022-10-28T01:20:37.895Z,69.85
2022-10-28T01:23:07.627Z,68.98
2022-10-28T01:25:34.237Z,68.34
2022-10-28T01:28:00.855Z,67.80
2022-10-28T01:30:27.468Z,67.76
2022-10-28T01:32:54.396Z,67.55
2022-10-28T01:35:21.263Z,67.99
2022-10-28T01:37:47.884Z,67.71
2022-10-28T01:40:14.526Z,67.79
2022-10-28T01:42:41.160Z,67.44
2022-10-28T01:45:07.775Z,68.22
2022-10-28T01:47:34.396Z,70.21
2022-10-28T01:50:00.994Z,72.52
2022-10-28T01:52:27.666Z,72.51
2022-10-28T01:54:54.253Z,72.71
2022-10-28T01:57:20.865Z,72.32
2022-10-28T01:59:47.467Z,71.79
2022-10-28T02:02:14.097Z,71.19
2022-10-28T02:04:40.741Z,71.79
2022-10-28T02:07:07.344Z,71.14
2022-10-28T02:09:33.952Z,71.52
2022-10-28T02:12:00.751Z,70.91
2022-10-28T02:14:27.370Z,71.56
2022-10-28T02:16:53.960Z,71.92
2022-10-28T02:19:20.550Z,71.41
2022-10-28T02:21:47.173Z,70.65
2022-10-28T02:24:13.803Z,70.78
2022-10-28T02:26:40.417Z,70.31
2022-10-28T02:29:07.031Z,70.42
2022-10-28T02:31:33.701Z,70.99
2022-10-28T02:34:00.302Z,72.74
2022-10-28T02:36:26.949Z,71.93
2022-10-28T02:38:53.563Z,71.20
2022-10-28T02:41:20.158Z,69.94
2022-10-28T02:43:46.796Z,69.55
2022-10-28T02:46:13.417Z,68.70
2022-10-28T02:48:40.070Z,68.09
2022-10-28T02:51:06.700Z,68.38
2022-10-28T02:53:33.331Z,68.18
2022-10-28T02:55:59.947Z,67.71
2022-10-28T02:58:26.567Z,66.88
2022-10-28T03:00:53.240Z,67.72
2022-10-28T03:03:19.880Z,67.24
2022-10-28T03:05:46.630Z,67.30
2022-10-28T03:08:13.243Z,67.08
2022-10-28T03:10:39.828Z,68.87
2022-10-28T03:13:06.448Z,70.39
2022-10-28T03:15:33.028Z,68.79
2022-10-28T03:17:59.635Z,68.32
2022-10-28T03:20:26.251Z,68.85
2022-10-28T03:22:53.123Z,69.10
2022-10-28T03:25:19.840Z,68.84
2022-10-28T03:27:46.474Z,68.63
2022-10-28T03:30:13.072Z,69.04
2022-10-28T03:32:39.687Z,68.67
2022-10-28T03:35:06.273Z,68.15
2022-10-28T03:37:33.015Z,67.52
2022-10-28T03:39:59.598Z,67.95
2022-10-28T03:42:26.217Z,68.17
2022-10-28T03:44:52.816Z,68.46
2022-10-28T03:47:19.405Z,68.21
2022-10-28T03:49:46.015Z,69.06
2022-10-28T03:52:12.636Z,69.04
2022-10-28T03:54:39.243Z,68.39
2022-10-28T03:57:06.045Z,68.33
2022-10-28T03:59:32.665Z,68.11
2022-10-28T04:01:59.580Z,68.18
2022-10-28T04:04:29.925Z,67.55
2022-10-28T04:06:59.620Z,66.99
2022-10-28T04:09:26.216Z,66.62
2022-10-28T04:11:55.226Z,66.92
2022-10-28T04:14:30.576Z,66.64
2022-10-28T04:17:00.824Z,66.61
2022-10-28T04:19:29.512Z,66.09
2022-10-28T04:21:56.126Z,66.52
2022-10-28T04:24:25.909Z,66.63
2022-10-28T04:26:53.546Z,66.26
2022-10-28T04:29:20.177Z,67.92
2022-10-28T04:31:48.758Z,68.16
2022-10-28T04:34:18.143Z,67.32
2022-10-28T04:36:44.738Z,67.73
2022-10-28T04:39:11.346Z,67.11
2022-10-28T04:41:37.958Z,68.37
2022-10-28T04:44:04.581Z,67.99
2022-10-28T04:46:31.172Z,68.09
2022-10-28T04:48:57.775Z,67.61
2022-10-28T04:51:24.386Z,68.33
2022-10-28T04:53:51.004Z,67.52
2022-10-28T04:56:17.615Z,67.06
2022-10-28T04:58:44.213Z,67.42
2022-10-28T05:01:10.920Z,68.75
2022-10-28T05:03:37.649Z,68.72
2022-10-28T05:06:04.332Z,67.95
2022-10-28T05:08:30.976Z,68.15
2022-10-28T05:10:57.573Z,68.91
2022-10-28T05:13:24.196Z,68.50
2022-10-28T05:15:50.801Z,69.56
2022-10-28T05:18:17.471Z,69.98
2022-10-28T05:20:44.077Z,69.78
2022-10-28T05:23:10.688Z,69.33
2022-10-28T05:25:37.314Z,68.72
2022-10-28T05:28:03.914Z,68.81
2022-10-28T05:30:30.515Z,67.98
2022-10-28T05:32:57.534Z,68.01
2022-10-28T05:35:24.540Z,67.78
2022-10-28T05:37:51.153Z,68.84
2022-10-28T05:40:17.887Z,68.34
2022-10-28T05:42:44.532Z,68.80
2022-10-28T05:45:11.150Z,69.47
2022-10-28T05:47:40.011Z,68.13
2022-10-28T05:50:06.822Z,67.60
2022-10-28T05:52:33.490Z,68.72
2022-10-28T05:55:00.143Z,69.36
2022-10-28T05:57:26.737Z,69.40
2022-10-28T05:59:53.358Z,69.40
2022-10-28T06:02:19.953Z,70.40
2022-10-28T06:04:46.562Z,69.99
2022-10-28T06:07:13.205Z,69.74
2022-10-28T06:09:39.984Z,70.02
2022-10-28T06:12:05.062Z,69.07
2022-10-28T06:14:31.644Z,69.24
2022-10-28T06:16:58.262Z,68.75
2022-10-28T06:19:24.875Z,68.23
2022-10-28T06:21:51.471Z,67.68
2022-10-28T06:24:18.095Z,67.82
2022-10-28T06:26:44.687Z,67.74
2022-10-28T06:29:11.361Z,68.11
2022-10-28T06:31:37.947Z,68.19
2022-10-28T06:34:04.583Z,68.79
2022-10-28T06:36:31.203Z,68.70
2022-10-28T06:38:57.861Z,68.28
2022-10-28T06:41:24.487Z,68.43
2022-10-28T06:43:51.111Z,68.63
2022-10-28T06:46:17.747Z,68.02
2022-10-28T06:48:45.886Z,67.96
2022-10-28T06:51:12.476Z,68.31
2022-10-28T06:53:39.077Z,67.85
2022-10-28T06:56:05.761Z,67.13
2022-10-28T06:58:32.375Z,67.95
2022-10-28T07:00:58.985Z,67.99
2022-10-28T07:03:25.619Z,67.55
2022-10-28T07:05:52.254Z,67.09
2022-10-28T07:08:18.903Z,67.75
2022-10-28T07:10:45.525Z,67.14
2022-10-28T07:13:12.135Z,66.78
2022-10-28T07:15:38.755Z,66.74
2022-10-28T07:18:05.361Z,67.24
2022-10-28T07:20:32.033Z,66.91
2022-10-28T07:22:58.691Z,66.39
2022-10-28T07:25:25.287Z,65.97
2022-10-28T07:27:52.126Z,67.39
2022-10-28T07:30:19.033Z,67.90
2022-10-28T07:32:45.633Z,68.40
2022-10-28T07:35:12.248Z,67.59
2022-10-28T07:37:38.846Z,66.05
2022-10-28T07:40:05.514Z,65.07
2022-10-28T07:42:32.106Z,64.56
2022-10-28T07:44:58.705Z,64.49
2022-10-28T07:47:25.782Z,64.12
2022-10-28T07:49:52.365Z,63.22
2022-10-28T07:52:19.014Z,63.05
2022-10-28T07:54:45.625Z,63.21
2022-10-28T07:57:12.582Z,62.74
2022-10-28T07:59:39.191Z,62.95
2022-10-28T08:02:05.979Z,62.57
2022-10-28T08:04:32.597Z,61.89
2022-10-28T08:06:59.196Z,60.80
2022-10-28T08:09:25.852Z,60.08
2022-10-28T08:11:52.661Z,59.63
2022-10-28T08:14:19.282Z,59.52
2022-10-28T08:16:45.892Z,59.25
2022-10-28T08:19:12.539Z,58.69
2022-10-28T08:21:39.145Z,58.42
2022-10-28T08:24:05.759Z,58.55
2022-10-28T08:26:32.818Z,58.82
2022-10-28T08:28:59.405Z,58.27
2022-10-28T08:31:26.071Z,58.41
2022-10-28T08:33:52.687Z,58.36
2022-10-28T08:36:20.111Z,57.31
2022-10-28T08:38:46.711Z,56.62
2022-10-28T08:41:13.341Z,57.15
2022-10-28T08:43:56.078Z,56.08
2022-10-28T08:46:23.162Z,55.36
2022-10-28T08:48:49.781Z,55.39
2022-10-28T08:51:16.412Z,55.30
2022-10-28T08:53:43.003Z,54.29
2022-10-28T08:56:09.654Z,53.88
2022-10-28T08:58:36.295Z,53.56
2022-10-28T09:01:02.982Z,53.99
2022-10-28T09:03:29.660Z,53.69
2022-10-28T09:05:56.252Z,53.38
2022-10-28T09:08:22.853Z,52.78
2022-10-28T09:10:49.700Z,53.23
2022-10-28T09:13:16.320Z,52.97
2022-10-28T09:15:42.938Z,51.78
2022-10-28T09:18:09.556Z,51.72
2022-10-28T09:20:36.472Z,51.59
2022-10-28T09:23:03.101Z,51.38
2022-10-28T09:25:29.723Z,51.87
2022-10-28T09:27:56.629Z,51.41
2022-10-28T09:30:23.566Z,51.03
2022-10-28T09:32:50.151Z,50.46
2022-10-28T09:35:16.823Z,50.61
2022-10-28T09:37:43.443Z,50.57
2022-10-28T09:40:10.035Z,50.11
2022-10-28T09:42:36.713Z,49.87
2022-10-28T09:45:03.382Z,49.44
2022-10-28T09:47:30.156Z,49.19
2022-10-28T09:49:56.742Z,49.48
2022-10-28T09:52:23.504Z,49.54
2022-10-28T09:54:50.121Z,48.84
2022-10-28T09:57:17.525Z,48.63
2022-10-28T09:59:44.355Z,48.73
2022-10-28T10:02:11.029Z,48.86
2022-10-28T10:04:37.651Z,48.34
2022-10-28T10:07:04.251Z,46.66
2022-10-28T10:09:30.864Z,47.35
2022-10-28T10:11:57.484Z,47.07
2022-10-28T10:14:24.079Z,46.89
2022-10-28T10:16:50.689Z,46.83
2022-10-28T10:19:17.316Z,46.64
2022-10-28T10:21:43.973Z,46.30
2022-10-28T10:24:10.622Z,46.06
2022-10-28T10:26:37.217Z,45.41
2022-10-28T10:29:03.853Z,46.11
2022-10-28T10:31:30.457Z,45.47
2022-10-28T10:33:57.116Z,44.24
2022-10-28T10:36:23.917Z,46.35
2022-10-28T10:38:50.552Z,47.69
2022-10-28T10:41:17.196Z,46.30
2022-10-28T10:43:43.781Z,46.80
2022-10-28T10:46:10.394Z,46.52
2022-10-28T10:48:37.014Z,45.92
2022-10-28T10:51:03.619Z,46.29
2022-10-28T10:53:30.240Z,45.59
2022-10-28T10:55:56.952Z,45.93
2022-10-28T10:58:23.565Z,45.92
2022-10-28T11:00:50.195Z,44.91
2022-10-28T11:03:16.787Z,46.85
2022-10-28T11:05:45.468Z,45.37
2022-10-28T11:08:12.136Z,44.15
2022-10-28T11:10:38.730Z,46.75
2022-10-28T11:13:05.338Z,45.62
2022-10-28T11:15:31.976Z,45.05
2022-10-28T11:17:58.589Z,45.84
2022-10-28T11:20:25.174Z,47.01
2022-10-28T11:22:52.038Z,46.02
2022-10-28T11:25:18.951Z,44.47
2022-10-28T11:27:47.514Z,45.70
2022-10-28T11:30:16.656Z,47.61
2022-10-28T11:32:54.543Z,46.53
2022-10-28T11:35:29.910Z,44.74
2022-10-28T11:37:56.543Z,45.84
2022-10-28T11:40:23.177Z,46.25
2022-10-28T11:42:49.768Z,45.08
2022-10-28T11:45:16.382Z,45.73
2022-10-28T11:47:43.012Z,45.63
2022-10-28T11:50:09.648Z,45.33
2022-10-28T11:52:38.118Z,45.97
2022-10-28T11:55:07.845Z,45.32
2022-10-28T11:57:34.491Z,48.00
2022-10-28T12:00:01.146Z,47.75
2022-10-28T12:02:27.988Z,46.88
2022-10-28T12:04:54.632Z,48.52
2022-10-28T12:07:21.227Z,46.15
2022-10-28T12:09:47.813Z,45.82
2022-10-28T12:12:14.497Z,45.45
2022-10-28T12:14:41.113Z,46.94
2022-10-28T12:17:07.726Z,46.24
2022-10-28T12:19:34.380Z,45.36
2022-10-28T12:22:01.017Z,48.12
2022-10-28T12:24:27.821Z,46.52
2022-10-28T12:26:54.534Z,45.22
2022-10-28T12:29:21.281Z,44.76
2022-10-28T12:31:47.911Z,43.91
2022-10-28T12:34:14.539Z,43.14
2022-10-28T12:36:41.711Z,44.79
2022-10-28T12:39:08.364Z,47.74
2022-10-28T12:41:35.041Z,46.66
2022-10-28T12:44:01.729Z,46.77
2022-10-28T12:46:28.374Z,45.16
2022-10-28T12:48:55.015Z,44.25
2022-10-28T12:51:21.615Z,45.22
2022-10-28T12:53:48.405Z,43.36
2022-10-28T12:56:15.069Z,44.32
2022-10-28T12:58:41.747Z,46.61
2022-10-28T13:01:08.459Z,45.84
2022-10-28T13:03:35.142Z,45.16
2022-10-28T13:06:01.825Z,43.70
2022-10-28T13:08:28.416Z,43.76
2022-10-28T13:10:55.054Z,43.65
2022-10-28T13:13:21.677Z,43.78
2022-10-28T13:15:48.333Z,42.94
2022-10-28T13:18:14.964Z,43.95
2022-10-28T13:20:41.625Z,44.23
2022-10-28T13:23:08.281Z,45.37
2022-10-28T13:25:34.878Z,45.54
2022-10-28T13:28:01.531Z,46.72
2022-10-28T13:30:28.180Z,47.29
2022-10-28T13:32:54.781Z,47.44
2022-10-28T13:35:21.407Z,46.56
2022-10-28T13:37:48.059Z,44.84
2022-10-28T13:40:14.667Z,44.39
2022-10-28T13:42:41.305Z,43.50
2022-10-28T13:45:07.906Z,43.21
2022-10-28T13:47:34.552Z,42.64
2022-10-28T13:50:01.169Z,44.44
2022-10-28T13:52:27.793Z,44.70
2022-10-28T13:54:54.461Z,45.44
2022-10-28T13:57:21.098Z,45.17
2022-10-28T13:59:47.755Z,45.05
2022-10-28T14:02:33.839Z,45.04
2022-10-28T14:05:01.023Z,46.39
2022-10-28T14:07:27.654Z,46.42
2022-10-28T14:09:54.293Z,46.32
2022-10-28T14:12:20.922Z,46.10
2022-10-28T14:14:47.571Z,45.74
2022-10-28T14:17:14.227Z,45.14
2022-10-28T14:19:40.897Z,44.63
2022-10-28T14:22:07.619Z,45.35
2022-10-28T14:24:34.316Z,47.09
2022-10-28T14:27:00.936Z,45.97
2022-10-28T14:29:27.531Z,45.87
2022-10-28T14:31:54.144Z,45.85
2022-10-28T14:34:20.760Z,45.65
2022-10-28T14:36:47.385Z,45.26
2022-10-28T14:39:13.996Z,45.38
2022-10-28T14:41:43.826Z,46.07
2022-10-28T14:44:10.454Z,45.89
2022-10-28T14:46:37.066Z,45.77
2022-10-28T14:49:03.662Z,45.64
2022-10-28T14:51:30.300Z,46.35
2022-10-28T14:53:56.893Z,46.12
2022-10-28T14:58:55.028Z,46.10
2022-10-28T15:01:21.776Z,46.16
2022-10-28T15:03:48.511Z,46.70
2022-10-28T15:06:15.119Z,46.90
2022-10-28T15:08:41.744Z,46.31
2022-10-28T15:11:08.353Z,47.34
2022-10-28T15:13:34.983Z,47.56
2022-10-28T15:16:04.598Z,47.81
2022-10-28T15:18:31.450Z,48.10
2022-10-28T15:20:58.074Z,48.14
2022-10-28T15:23:24.734Z,48.92
2022-10-28T15:25:51.378Z,49.94
2022-10-28T15:28:18.030Z,50.24
2022-10-28T15:30:46.618Z,50.50
2022-10-28T15:33:13.516Z,50.76
2022-10-28T15:35:40.123Z,51.48
2022-10-28T15:38:06.781Z,51.17
2022-10-28T15:40:33.386Z,51.67
2022-10-28T15:43:00.084Z,52.08
2022-10-28T15:45:26.807Z,52.55
2022-10-28T15:47:53.734Z,52.93
2022-10-28T15:50:20.501Z,52.80
2022-10-28T15:52:47.096Z,53.11
2022-10-28T15:55:13.726Z,52.97
2022-10-28T15:57:40.344Z,53.43
2022-10-28T16:00:06.946Z,53.67
2022-10-28T16:02:33.756Z,53.88
2022-10-28T16:05:00.531Z,53.73
2022-10-28T16:07:27.141Z,54.26
2022-10-28T16:09:53.759Z,54.79
2022-10-28T16:12:20.384Z,55.38
2022-10-28T16:14:46.974Z,54.69
2022-10-28T16:17:13.600Z,55.40
2022-10-28T16:19:40.222Z,55.66
2022-10-28T16:22:06.834Z,55.52
2022-10-28T16:24:33.481Z,55.69
2022-10-28T16:27:00.107Z,55.50
2022-10-28T16:29:26.773Z,55.49
2022-10-28T16:31:53.388Z,55.75
2022-10-28T16:34:20.202Z,56.10
2022-10-28T16:36:46.853Z,56.08
2022-10-28T16:39:13.475Z,56.26
2022-10-28T16:41:40.115Z,56.80
2022-10-28T16:46:38.227Z,57.50
2022-10-28T16:49:04.860Z,57.34
2022-10-28T16:51:31.483Z,57.34
2022-10-28T16:53:58.097Z,58.09
2022-10-28T16:56:24.686Z,57.71
2022-10-28T16:58:51.300Z,57.95
2022-10-28T17:01:17.936Z,57.78
2022-10-28T17:03:44.640Z,57.95
2022-10-28T17:06:11.226Z,58.29
2022-10-28T17:09:01.215Z,57.59
2022-10-28T17:11:24.525Z,57.82
2022-10-28T17:13:51.228Z,58.19
2022-10-28T17:16:17.842Z,58.42
2022-10-28T17:18:44.473Z,58.51
2022-10-28T17:21:11.127Z,58.75
2022-10-28T17:23:37.725Z,58.97
2022-10-28T17:26:04.336Z,59.20
2022-10-28T17:28:31.720Z,59.38
2022-10-28T17:30:58.374Z,59.40
2022-10-28T17:33:24.970Z,59.67
2022-10-28T17:35:51.650Z,59.89
2022-10-28T17:38:18.287Z,60.06
2022-10-28T17:40:44.918Z,59.60
2022-10-28T17:43:11.544Z,59.79
2022-10-28T17:45:38.139Z,60.33
2022-10-28T17:48:04.759Z,60.35
2022-10-28T17:50:31.384Z,60.91
2022-10-28T17:52:58.185Z,60.63
2022-10-28T17:55:24.982Z,61.13
2022-10-28T17:57:51.767Z,61.22
2022-10-28T18:00:18.508Z,61.25
2022-10-28T18:02:45.254Z,61.37
2022-10-28T18:05:12.055Z,60.99
2022-10-28T18:07:38.696Z,61.15
2022-10-28T18:10:05.301Z,60.79
2022-10-28T18:12:31.912Z,61.32
2022-10-28T18:14:58.524Z,61.46
2022-10-28T18:17:25.134Z,60.28
2022-10-28T18:19:51.732Z,61.24
2022-10-28T18:22:18.381Z,61.80
2022-10-28T18:24:45.081Z,61.85
2022-10-28T18:27:11.717Z,61.75
2022-10-28T18:29:38.301Z,61.40
2022-10-28T18:32:04.927Z,61.62
2022-10-28T18:34:31.659Z,61.44
2022-10-28T18:36:58.366Z,61.53
2022-10-28T18:39:24.997Z,61.09
2022-10-28T18:41:51.723Z,61.11
2022-10-28T18:44:18.383Z,61.38
2022-10-28T18:46:45.024Z,61.66
2022-10-28T18:49:11.617Z,61.28
2022-10-28T18:51:38.262Z,61.59
2022-10-28T18:54:04.898Z,61.77
2022-10-28T18:56:31.510Z,62.40
2022-10-28T18:58:58.151Z,62.42
2022-10-28T19:01:24.926Z,62.38
2022-10-28T19:03:51.631Z,62.20
2022-10-28T19:06:18.260Z,61.85
2022-10-28T19:08:44.902Z,61.24
2022-10-28T19:11:11.530Z,61.33
2022-10-28T19:13:38.205Z,61.50
2022-10-28T19:16:04.865Z,61.11
2022-10-28T19:18:31.561Z,61.49
2022-10-28T19:20:58.145Z,61.30
2022-10-28T19:23:24.785Z,61.14
2022-10-28T19:25:51.444Z,61.41
2022-10-28T19:28:18.053Z,61.99
2022-10-28T19:30:44.680Z,61.83
2022-10-28T19:33:11.322Z,62.23
2022-10-28T19:35:38.016Z,62.38
2022-10-28T19:38:04.660Z,63.27
2022-10-28T19:40:31.284Z,63.07
2022-10-28T19:42:57.938Z,63.53
2022-10-28T19:45:24.625Z,62.93
2022-10-28T19:47:51.265Z,62.74
2022-10-28T19:50:17.955Z,63.22
2022-10-28T19:52:44.565Z,63.89
2022-10-28T19:55:14.912Z,63.85
2022-10-28T19:57:41.840Z,63.44
2022-10-28T20:00:08.462Z,63.49
2022-10-28T20:02:35.274Z,63.49
2022-10-28T20:05:01.966Z,63.61
2022-10-28T20:07:28.568Z,63.16
2022-10-28T20:09:55.237Z,63.42
2022-10-28T20:12:21.896Z,62.97
2022-10-28T20:14:48.509Z,63.31
2022-10-28T20:17:15.227Z,63.58
2022-10-28T20:19:41.876Z,64.01
2022-10-28T20:22:08.480Z,63.65
2022-10-28T20:24:35.073Z,64.68
2022-10-28T20:27:01.697Z,64.12
2022-10-28T20:29:28.323Z,64.83
2022-10-28T20:31:54.970Z,64.01
2022-10-28T20:34:21.566Z,63.84
2022-10-28T20:36:48.205Z,63.23
2022-10-28T20:39:14.812Z,64.13
2022-10-28T20:41:41.403Z,64.04
2022-10-28T20:44:08.090Z,63.64
2022-10-28T20:46:34.753Z,64.13
2022-10-28T20:49:01.499Z,64.63
2022-10-28T20:51:28.639Z,65.36
2022-10-28T20:53:55.248Z,64.39
2022-10-28T20:56:21.908Z,64.82
2022-10-28T20:58:48.532Z,65.11
2022-10-28T21:01:15.292Z,65.50
2022-10-28T21:03:42.152Z,64.74
2022-10-28T21:06:08.864Z,64.90
2022-10-28T21:08:35.480Z,64.38
2022-10-28T21:11:02.106Z,64.53
2022-10-28T21:13:28.697Z,63.83
2022-10-28T21:15:57.645Z,63.93
2022-10-28T21:18:24.655Z,63.96
2022-10-28T21:20:51.275Z,63.16
2022-10-28T21:23:17.944Z,63.19
2022-10-28T21:25:44.550Z,63.60
2022-10-28T21:28:11.191Z,64.31
2022-10-28T21:30:37.866Z,63.93
2022-10-28T21:33:04.487Z,63.03
2022-10-28T21:35:31.127Z,62.61
2022-10-28T21:37:58.116Z,63.09
2022-10-28T21:40:24.990Z,64.04
2022-10-28T21:42:51.583Z,64.18
2022-10-28T21:45:18.207Z,63.46
2022-10-28T21:47:44.817Z,63.86
2022-10-28T21:50:11.462Z,63.93
2022-10-28T21:52:38.075Z,62.92
2022-10-28T21:55:14.577Z,63.17
2022-10-28T21:57:47.479Z,63.86
2022-10-28T22:00:14.076Z,63.84
2022-10-28T22:02:40.870Z,63.69
2022-10-28T22:05:07.568Z,63.73
2022-10-28T22:07:34.186Z,63.20
2022-10-28T22:10:00.802Z,63.18
2022-10-28T22:12:27.398Z,63.58
2022-10-28T22:14:54.034Z,63.06
2022-10-28T22:17:20.675Z,63.00
2022-10-28T22:19:47.302Z,63.80
2022-10-28T22:22:13.894Z,63.88
2022-10-28T22:24:40.518Z,63.81
2022-10-28T22:27:07.137Z,63.27
2022-10-28T22:29:33.793Z,63.15
2022-10-28T22:32:00.385Z,62.69
2022-10-28T22:34:27.013Z,63.71
2022-10-28T22:36:53.637Z,63.33
2022-10-28T22:39:20.226Z,63.18
2022-10-28T22:41:46.840Z,63.54
2022-10-28T22:44:13.459Z,63.64
2022-10-28T22:46:40.152Z,64.17
2022-10-28T22:49:06.882Z,64.21
2022-10-28T22:51:33.555Z,64.33
2022-10-28T22:54:00.146Z,64.40
2022-10-28T22:56:26.759Z,63.67
2022-10-28T22:58:53.362Z,63.72
2022-10-28T23:01:20.056Z,64.26
2022-10-28T23:03:46.793Z,64.06
2022-10-28T23:06:13.393Z,63.83
2022-10-28T23:08:40.008Z,63.80
2022-10-28T23:11:06.648Z,64.01
2022-10-28T23:13:33.341Z,63.88
2022-10-28T23:15:59.987Z,63.45
2022-10-28T23:18:26.578Z,63.73
2022-10-28T23:20:53.170Z,63.44
2022-10-28T23:23:19.837Z,62.95
2022-10-28T23:25:46.426Z,63.50
2022-10-28T23:28:13.059Z,63.83
2022-10-28T23:30:39.654Z,63.96
2022-10-28T23:33:06.287Z,64.19
2022-10-28T23:35:32.883Z,65.43
2022-10-28T23:37:59.495Z,64.91
2022-10-28T23:40:26.144Z,65.13
2022-10-28T23:42:52.952Z,64.59
2022-10-28T23:45:19.791Z,65.05
2022-10-28T23:47:46.387Z,64.67
2022-10-28T23:50:13.006Z,65.00
2022-10-28T23:52:39.587Z,65.11
2022-10-28T23:55:06.220Z,66.34
2022-10-28T23:57:32.817Z,65.73
2022-10-28T23:59:59.427Z,66.20
